sensor_id;sensor_type;location;lat;lon;timestamp;P1;durP1;ratioP1;P2;durP2;ratioP2
47167;SDS011;32931;47.778;17.806;2022-08-05T00:01:48;4.57;;;1.90;;
47167;SDS011;32931;47.778;17.806;2022-08-05T00:04:15;8.32;;;2.00;;
47167;SDS011;32931;47.778;17.806;2022-08-05T00:06:42;5.82;;;2.25;;
47167;SDS011;32931;47.778;17.806;2022-08-05T00:09:09;4.32;;;2.10;;
47167;SDS011;32931;47.778;17.806;2022-08-05T00:11:35;4.88;;;2.03;;
47167;SDS011;32931;47.778;17.806;2022-08-05T00:14:01;3.70;;;2.15;;
47167;SDS011;32931;47.778;17.806;2022-08-05T00:16:28;3.70;;;2.30;;
47167;SDS011;32931;47.778;17.806;2022-08-05T00:18:54;5.30;;;1.85;;
47167;SDS011;32931;47.778;17.806;2022-08-05T00:21:20;7.65;;;2.10;;
47167;SDS011;32931;47.778;17.806;2022-08-05T00:23:47;6.57;;;2.10;;
47167;SDS011;32931;47.778;17.806;2022-08-05T00:26:14;6.88;;;2.55;;
47167;SDS011;32931;47.778;17.806;2022-08-05T00:28:41;3.10;;;2.20;;
47167;SDS011;32931;47.778;17.806;2022-08-05T00:31:08;10.38;;;2.55;;
47167;SDS011;32931;47.778;17.806;2022-08-05T00:33:35;5.30;;;2.90;;
47167;SDS011;32931;47.778;17.806;2022-08-05T00:36:02;5.45;;;2.90;;
47167;SDS011;32931;47.778;17.806;2022-08-05T00:38:29;11.43;;;2.63;;
47167;SDS011;32931;47.778;17.806;2022-08-05T00:40:55;18.63;;;2.83;;
47167;SDS011;32931;47.778;17.806;2022-08-05T00:43:23;5.03;;;3.10;;
47167;SDS011;32931;47.778;17.806;2022-08-05T00:45:50;4.57;;;2.80;;
47167;SDS011;32931;47.778;17.806;2022-08-05T00:48:17;5.35;;;2.65;;
47167;SDS011;32931;47.778;17.806;2022-08-05T00:50:46;5.57;;;3.20;;
47167;SDS011;32931;47.778;17.806;2022-08-05T00:53:14;7.00;;;2.90;;
47167;SDS011;32931;47.778;17.806;2022-08-05T00:55:42;6.07;;;3.40;;
47167;SDS011;32931;47.778;17.806;2022-08-05T00:58:09;6.18;;;3.20;;
47167;SDS011;32931;47.778;17.806;2022-08-05T01:00:37;6.30;;;3.40;;
47167;SDS011;32931;47.778;17.806;2022-08-05T01:03:04;6.57;;;3.40;;
47167;SDS011;32931;47.778;17.806;2022-08-05T01:05:31;8.02;;;3.20;;
47167;SDS011;32931;47.778;17.806;2022-08-05T01:07:57;5.70;;;3.17;;
47167;SDS011;32931;47.778;17.806;2022-08-05T01:10:26;8.73;;;3.15;;
47167;SDS011;32931;47.778;17.806;2022-08-05T01:12:57;4.32;;;2.90;;
47167;SDS011;32931;47.778;17.806;2022-08-05T01:15:32;5.65;;;3.00;;
47167;SDS011;32931;47.778;17.806;2022-08-05T01:18:04;6.22;;;3.72;;
47167;SDS011;32931;47.778;17.806;2022-08-05T01:26:02;7.43;;;3.85;;
47167;SDS011;32931;47.778;17.806;2022-08-05T01:31:09;4.93;;;3.03;;
47167;SDS011;32931;47.778;17.806;2022-08-05T01:33:38;6.45;;;3.30;;
47167;SDS011;32931;47.778;17.806;2022-08-05T01:36:12;6.65;;;3.08;;
47167;SDS011;32931;47.778;17.806;2022-08-05T01:38:41;7.82;;;3.15;;
47167;SDS011;32931;47.778;17.806;2022-08-05T01:41:10;5.68;;;3.30;;
47167;SDS011;32931;47.778;17.806;2022-08-05T01:43:39;6.97;;;3.50;;
47167;SDS011;32931;47.778;17.806;2022-08-05T01:46:06;6.55;;;3.78;;
47167;SDS011;32931;47.778;17.806;2022-08-05T01:48:34;10.90;;;3.38;;
47167;SDS011;32931;47.778;17.806;2022-08-05T01:51:02;11.10;;;3.55;;
47167;SDS011;32931;47.778;17.806;2022-08-05T01:53:30;4.20;;;3.20;;
47167;SDS011;32931;47.778;17.806;2022-08-05T01:55:58;7.03;;;4.07;;
47167;SDS011;32931;47.778;17.806;2022-08-05T01:58:26;15.63;;;3.90;;
47167;SDS011;32931;47.778;17.806;2022-08-05T02:00:55;11.75;;;4.20;;
47167;SDS011;32931;47.778;17.806;2022-08-05T02:03:28;8.43;;;4.43;;
47167;SDS011;32931;47.778;17.806;2022-08-05T02:06:02;11.57;;;5.05;;
47167;SDS011;32931;47.778;17.806;2022-08-05T02:08:30;11.43;;;4.75;;
47167;SDS011;32931;47.778;17.806;2022-08-05T02:11:07;9.80;;;5.30;;
47167;SDS011;32931;47.778;17.806;2022-08-05T02:13:51;8.13;;;5.40;;
47167;SDS011;32931;47.778;17.806;2022-08-05T02:21:56;9.88;;;5.55;;
47167;SDS011;32931;47.778;17.806;2022-08-05T02:24:26;9.23;;;5.47;;
47167;SDS011;32931;47.778;17.806;2022-08-05T02:26:59;8.95;;;6.40;;
47167;SDS011;32931;47.778;17.806;2022-08-05T02:29:27;13.57;;;6.53;;
47167;SDS011;32931;47.778;17.806;2022-08-05T02:31:57;13.63;;;6.28;;
47167;SDS011;32931;47.778;17.806;2022-08-05T02:34:26;12.50;;;6.50;;
47167;SDS011;32931;47.778;17.806;2022-08-05T02:36:56;16.20;;;6.53;;
47167;SDS011;32931;47.778;17.806;2022-08-05T02:39:26;11.65;;;6.70;;
47167;SDS011;32931;47.778;17.806;2022-08-05T02:41:59;13.13;;;6.68;;
47167;SDS011;32931;47.778;17.806;2022-08-05T02:44:26;9.30;;;6.32;;
47167;SDS011;32931;47.778;17.806;2022-08-05T02:46:55;14.23;;;6.05;;
47167;SDS011;32931;47.778;17.806;2022-08-05T02:49:22;12.75;;;6.80;;
47167;SDS011;32931;47.778;17.806;2022-08-05T02:51:51;7.32;;;6.15;;
47167;SDS011;32931;47.778;17.806;2022-08-05T02:54:19;10.60;;;6.57;;
47167;SDS011;32931;47.778;17.806;2022-08-05T02:56:46;7.63;;;6.40;;
47167;SDS011;32931;47.778;17.806;2022-08-05T02:59:13;6.63;;;5.95;;
47167;SDS011;32931;47.778;17.806;2022-08-05T03:01:43;9.07;;;6.20;;
47167;SDS011;32931;47.778;17.806;2022-08-05T03:04:11;8.32;;;6.28;;
47167;SDS011;32931;47.778;17.806;2022-08-05T03:06:39;11.30;;;6.25;;
47167;SDS011;32931;47.778;17.806;2022-08-05T03:09:07;12.27;;;5.75;;
47167;SDS011;32931;47.778;17.806;2022-08-05T03:11:40;11.20;;;5.70;;
47167;SDS011;32931;47.778;17.806;2022-08-05T03:14:07;7.47;;;6.00;;
47167;SDS011;32931;47.778;17.806;2022-08-05T03:16:33;18.67;;;6.13;;
47167;SDS011;32931;47.778;17.806;2022-08-05T03:19:00;9.27;;;5.38;;
47167;SDS011;32931;47.778;17.806;2022-08-05T03:21:26;7.90;;;5.55;;
47167;SDS011;32931;47.778;17.806;2022-08-05T03:23:52;9.82;;;5.80;;
47167;SDS011;32931;47.778;17.806;2022-08-05T03:26:19;13.38;;;5.80;;
47167;SDS011;32931;47.778;17.806;2022-08-05T03:28:45;8.57;;;5.45;;
47167;SDS011;32931;47.778;17.806;2022-08-05T03:31:12;16.02;;;6.00;;
47167;SDS011;32931;47.778;17.806;2022-08-05T03:33:38;10.80;;;6.30;;
47167;SDS011;32931;47.778;17.806;2022-08-05T03:36:06;16.60;;;6.70;;
47167;SDS011;32931;47.778;17.806;2022-08-05T03:38:32;8.55;;;5.90;;
47167;SDS011;32931;47.778;17.806;2022-08-05T03:40:59;8.98;;;5.85;;
47167;SDS011;32931;47.778;17.806;2022-08-05T03:43:25;22.15;;;6.50;;
47167;SDS011;32931;47.778;17.806;2022-08-05T03:45:51;11.68;;;5.32;;
47167;SDS011;32931;47.778;17.806;2022-08-05T03:48:19;15.25;;;5.47;;
47167;SDS011;32931;47.778;17.806;2022-08-05T03:53:48;17.10;;;6.57;;
47167;SDS011;32931;47.778;17.806;2022-08-05T03:59:02;8.65;;;5.40;;
47167;SDS011;32931;47.778;17.806;2022-08-05T04:01:32;9.77;;;5.45;;
47167;SDS011;32931;47.778;17.806;2022-08-05T04:04:04;18.70;;;5.88;;
47167;SDS011;32931;47.778;17.806;2022-08-05T04:06:32;14.40;;;5.80;;
47167;SDS011;32931;47.778;17.806;2022-08-05T04:09:00;16.33;;;5.72;;
47167;SDS011;32931;47.778;17.806;2022-08-05T04:11:27;11.93;;;6.20;;
47167;SDS011;32931;47.778;17.806;2022-08-05T04:13:53;14.40;;;6.68;;
47167;SDS011;32931;47.778;17.806;2022-08-05T04:16:20;15.52;;;6.82;;
47167;SDS011;32931;47.778;17.806;2022-08-05T04:18:46;11.13;;;6.05;;
47167;SDS011;32931;47.778;17.806;2022-08-05T04:21:12;16.90;;;6.55;;
47167;SDS011;32931;47.778;17.806;2022-08-05T04:23:39;10.90;;;6.40;;
47167;SDS011;32931;47.778;17.806;2022-08-05T04:26:05;9.77;;;6.70;;
47167;SDS011;32931;47.778;17.806;2022-08-05T04:28:31;7.82;;;6.70;;
47167;SDS011;32931;47.778;17.806;2022-08-05T04:30:58;9.68;;;6.80;;
47167;SDS011;32931;47.778;17.806;2022-08-05T04:33:25;9.35;;;6.40;;
47167;SDS011;32931;47.778;17.806;2022-08-05T04:35:51;12.52;;;6.90;;
47167;SDS011;32931;47.778;17.806;2022-08-05T04:38:18;11.85;;;7.05;;
47167;SDS011;32931;47.778;17.806;2022-08-05T04:40:44;9.55;;;7.65;;
47167;SDS011;32931;47.778;17.806;2022-08-05T04:43:10;17.25;;;6.95;;
47167;SDS011;32931;47.778;17.806;2022-08-05T04:45:36;9.32;;;7.43;;
47167;SDS011;32931;47.778;17.806;2022-08-05T04:48:08;13.23;;;7.05;;
47167;SDS011;32931;47.778;17.806;2022-08-05T04:50:43;11.73;;;7.13;;
47167;SDS011;32931;47.778;17.806;2022-08-05T04:53:11;32.78;;;7.72;;
47167;SDS011;32931;47.778;17.806;2022-08-05T04:55:39;15.30;;;7.22;;
47167;SDS011;32931;47.778;17.806;2022-08-05T04:58:06;13.32;;;7.25;;
47167;SDS011;32931;47.778;17.806;2022-08-05T05:00:34;11.63;;;6.97;;
47167;SDS011;32931;47.778;17.806;2022-08-05T05:03:02;13.68;;;6.68;;
47167;SDS011;32931;47.778;17.806;2022-08-05T05:05:29;12.88;;;6.80;;
47167;SDS011;32931;47.778;17.806;2022-08-05T05:07:57;12.05;;;6.60;;
47167;SDS011;32931;47.778;17.806;2022-08-05T05:10:25;17.40;;;6.75;;
47167;SDS011;32931;47.778;17.806;2022-08-05T05:12:52;16.55;;;6.38;;
47167;SDS011;32931;47.778;17.806;2022-08-05T05:15:18;9.77;;;6.28;;
47167;SDS011;32931;47.778;17.806;2022-08-05T05:17:44;12.98;;;6.35;;
47167;SDS011;32931;47.778;17.806;2022-08-05T05:20:11;13.30;;;6.05;;
47167;SDS011;32931;47.778;17.806;2022-08-05T05:22:38;13.13;;;5.78;;
47167;SDS011;32931;47.778;17.806;2022-08-05T05:25:05;9.30;;;4.75;;
47167;SDS011;32931;47.778;17.806;2022-08-05T05:27:34;13.35;;;5.32;;
47167;SDS011;32931;47.778;17.806;2022-08-05T05:30:01;13.45;;;5.60;;
47167;SDS011;32931;47.778;17.806;2022-08-05T05:32:27;16.05;;;5.30;;
47167;SDS011;32931;47.778;17.806;2022-08-05T05:34:53;17.38;;;5.18;;
47167;SDS011;32931;47.778;17.806;2022-08-05T05:37:20;12.60;;;4.90;;
47167;SDS011;32931;47.778;17.806;2022-08-05T05:39:46;18.33;;;5.20;;
47167;SDS011;32931;47.778;17.806;2022-08-05T05:42:12;16.65;;;5.15;;
47167;SDS011;32931;47.778;17.806;2022-08-05T05:44:38;11.52;;;4.90;;
47167;SDS011;32931;47.778;17.806;2022-08-05T05:47:04;9.18;;;4.28;;
47167;SDS011;32931;47.778;17.806;2022-08-05T05:49:31;11.13;;;4.00;;
47167;SDS011;32931;47.778;17.806;2022-08-05T05:51:57;11.73;;;4.28;;
47167;SDS011;32931;47.778;17.806;2022-08-05T05:54:24;11.90;;;4.00;;
47167;SDS011;32931;47.778;17.806;2022-08-05T05:56:50;22.40;;;4.13;;
47167;SDS011;32931;47.778;17.806;2022-08-05T05:59:16;10.52;;;3.33;;
47167;SDS011;32931;47.778;17.806;2022-08-05T06:01:42;15.88;;;4.05;;
47167;SDS011;32931;47.778;17.806;2022-08-05T06:04:12;13.50;;;3.67;;
47167;SDS011;32931;47.778;17.806;2022-08-05T06:06:42;11.15;;;4.00;;
47167;SDS011;32931;47.778;17.806;2022-08-05T06:09:09;9.32;;;3.70;;
47167;SDS011;32931;47.778;17.806;2022-08-05T06:11:36;14.80;;;3.83;;
47167;SDS011;32931;47.778;17.806;2022-08-05T06:14:02;11.35;;;3.95;;
47167;SDS011;32931;47.778;17.806;2022-08-05T06:16:29;7.82;;;3.28;;
47167;SDS011;32931;47.778;17.806;2022-08-05T06:18:55;9.60;;;3.58;;
47167;SDS011;32931;47.778;17.806;2022-08-05T06:21:21;10.05;;;3.38;;
47167;SDS011;32931;47.778;17.806;2022-08-05T07:14:25;9.45;;;2.83;;
47167;SDS011;32931;47.778;17.806;2022-08-05T07:17:09;8.90;;;3.08;;
47167;SDS011;32931;47.778;17.806;2022-08-05T07:19:35;9.15;;;2.75;;
47167;SDS011;32931;47.778;17.806;2022-08-05T07:22:02;7.13;;;2.78;;
47167;SDS011;32931;47.778;17.806;2022-08-05T07:24:29;9.15;;;2.78;;
47167;SDS011;32931;47.778;17.806;2022-08-05T07:26:55;13.07;;;2.47;;
47167;SDS011;32931;47.778;17.806;2022-08-05T07:29:21;5.47;;;2.50;;
47167;SDS011;32931;47.778;17.806;2022-08-05T07:31:48;6.50;;;2.42;;
47167;SDS011;32931;47.778;17.806;2022-08-05T07:34:14;7.53;;;2.38;;
47167;SDS011;32931;47.778;17.806;2022-08-05T07:36:40;13.48;;;2.65;;
47167;SDS011;32931;47.778;17.806;2022-08-05T07:39:07;11.40;;;2.60;;
47167;SDS011;32931;47.778;17.806;2022-08-05T07:41:34;4.90;;;2.53;;
47167;SDS011;32931;47.778;17.806;2022-08-05T07:44:01;12.55;;;2.55;;
47167;SDS011;32931;47.778;17.806;2022-08-05T07:46:29;10.63;;;2.60;;
47167;SDS011;32931;47.778;17.806;2022-08-05T07:48:57;15.25;;;2.33;;
47167;SDS011;32931;47.778;17.806;2022-08-05T07:51:24;9.48;;;2.38;;
47167;SDS011;32931;47.778;17.806;2022-08-05T07:53:50;9.77;;;2.28;;
47167;SDS011;32931;47.778;17.806;2022-08-05T07:56:17;7.22;;;2.55;;
47167;SDS011;32931;47.778;17.806;2022-08-05T07:58:43;10.52;;;2.05;;
47167;SDS011;32931;47.778;17.806;2022-08-05T08:01:09;7.85;;;1.95;;
47167;SDS011;32931;47.778;17.806;2022-08-05T08:03:35;7.53;;;2.20;;
47167;SDS011;32931;47.778;17.806;2022-08-05T08:06:02;13.93;;;2.40;;
47167;SDS011;32931;47.778;17.806;2022-08-05T08:08:28;5.13;;;2.03;;
47167;SDS011;32931;47.778;17.806;2022-08-05T08:10:55;8.85;;;2.30;;
47167;SDS011;32931;47.778;17.806;2022-08-05T08:13:21;7.13;;;2.13;;
47167;SDS011;32931;47.778;17.806;2022-08-05T08:15:47;8.52;;;2.03;;
47167;SDS011;32931;47.778;17.806;2022-08-05T08:18:14;4.53;;;1.70;;
47167;SDS011;32931;47.778;17.806;2022-08-05T08:20:40;8.15;;;2.38;;
47167;SDS011;32931;47.778;17.806;2022-08-05T08:23:06;9.02;;;2.10;;
47167;SDS011;32931;47.778;17.806;2022-08-05T08:25:32;6.00;;;1.67;;
47167;SDS011;32931;47.778;17.806;2022-08-05T08:27:59;9.80;;;2.10;;
47167;SDS011;32931;47.778;17.806;2022-08-05T08:30:26;10.02;;;1.98;;
47167;SDS011;32931;47.778;17.806;2022-08-05T08:32:52;5.65;;;2.00;;
47167;SDS011;32931;47.778;17.806;2022-08-05T08:35:18;8.85;;;2.30;;
47167;SDS011;32931;47.778;17.806;2022-08-05T08:37:45;5.70;;;1.52;;
47167;SDS011;32931;47.778;17.806;2022-08-05T08:40:11;8.88;;;1.80;;
47167;SDS011;32931;47.778;17.806;2022-08-05T08:42:38;5.75;;;2.08;;
47167;SDS011;32931;47.778;17.806;2022-08-05T08:45:05;11.98;;;2.03;;
47167;SDS011;32931;47.778;17.806;2022-08-05T08:47:32;9.75;;;2.00;;
47167;SDS011;32931;47.778;17.806;2022-08-05T08:50:00;4.35;;;1.70;;
47167;SDS011;32931;47.778;17.806;2022-08-05T08:52:31;5.57;;;1.75;;
47167;SDS011;32931;47.778;17.806;2022-08-05T08:55:00;13.00;;;1.95;;
47167;SDS011;32931;47.778;17.806;2022-08-05T08:57:28;7.22;;;2.33;;
47167;SDS011;32931;47.778;17.806;2022-08-05T08:59:54;5.68;;;2.00;;
47167;SDS011;32931;47.778;17.806;2022-08-05T09:02:23;10.07;;;2.05;;
47167;SDS011;32931;47.778;17.806;2022-08-05T09:04:50;8.25;;;2.00;;
47167;SDS011;32931;47.778;17.806;2022-08-05T09:07:16;7.35;;;1.83;;
47167;SDS011;32931;47.778;17.806;2022-08-05T09:09:43;12.32;;;1.92;;
47167;SDS011;32931;47.778;17.806;2022-08-05T09:12:09;6.30;;;1.48;;
47167;SDS011;32931;47.778;17.806;2022-08-05T09:14:36;8.45;;;1.65;;
47167;SDS011;32931;47.778;17.806;2022-08-05T09:17:04;9.00;;;1.75;;
47167;SDS011;32931;47.778;17.806;2022-08-05T09:19:34;3.88;;;1.33;;
47167;SDS011;32931;47.778;17.806;2022-08-05T09:22:01;3.17;;;1.13;;
47167;SDS011;32931;47.778;17.806;2022-08-05T09:24:28;12.82;;;1.88;;
47167;SDS011;32931;47.778;17.806;2022-08-05T09:26:56;9.02;;;1.70;;
47167;SDS011;32931;47.778;17.806;2022-08-05T09:29:35;4.55;;;1.65;;
47167;SDS011;32931;47.778;17.806;2022-08-05T09:32:04;6.18;;;1.33;;
47167;SDS011;32931;47.778;17.806;2022-08-05T09:34:50;9.23;;;1.77;;
47167;SDS011;32931;47.778;17.806;2022-08-05T09:37:20;6.35;;;1.45;;
47167;SDS011;32931;47.778;17.806;2022-08-05T09:39:50;8.05;;;1.63;;
47167;SDS011;32931;47.778;17.806;2022-08-05T09:42:18;6.78;;;1.75;;
47167;SDS011;32931;47.778;17.806;2022-08-05T09:44:49;9.10;;;1.20;;
47167;SDS011;32931;47.778;17.806;2022-08-05T09:47:18;2.47;;;1.30;;
47167;SDS011;32931;47.778;17.806;2022-08-05T09:49:47;5.25;;;1.70;;
47167;SDS011;32931;47.778;17.806;2022-08-05T09:52:24;4.88;;;1.83;;
47167;SDS011;32931;47.778;17.806;2022-08-05T09:54:53;9.80;;;1.60;;
47167;SDS011;32931;47.778;17.806;2022-08-05T09:57:30;8.05;;;1.60;;
47167;SDS011;32931;47.778;17.806;2022-08-05T10:00:04;3.53;;;1.50;;
47167;SDS011;32931;47.778;17.806;2022-08-05T10:02:37;11.40;;;1.60;;
47167;SDS011;32931;47.778;17.806;2022-08-05T10:07:43;7.35;;;1.63;;
47167;SDS011;32931;47.778;17.806;2022-08-05T10:10:11;8.50;;;1.85;;
47167;SDS011;32931;47.778;17.806;2022-08-05T10:12:39;9.35;;;1.60;;
47167;SDS011;32931;47.778;17.806;2022-08-05T10:17:40;10.15;;;1.65;;
47167;SDS011;32931;47.778;17.806;2022-08-05T10:20:08;6.78;;;1.83;;
47167;SDS011;32931;47.778;17.806;2022-08-05T10:22:40;3.85;;;1.40;;
47167;SDS011;32931;47.778;17.806;2022-08-05T10:25:07;6.32;;;1.13;;
47167;SDS011;32931;47.778;17.806;2022-08-05T10:27:34;6.07;;;1.50;;
47167;SDS011;32931;47.778;17.806;2022-08-05T10:30:00;6.22;;;1.50;;
47167;SDS011;32931;47.778;17.806;2022-08-05T10:32:26;5.10;;;1.50;;
47167;SDS011;32931;47.778;17.806;2022-08-05T10:34:53;9.13;;;1.50;;
47167;SDS011;32931;47.778;17.806;2022-08-05T10:37:22;8.55;;;1.45;;
47167;SDS011;32931;47.778;17.806;2022-08-05T10:39:48;5.80;;;1.50;;
47167;SDS011;32931;47.778;17.806;2022-08-05T10:42:17;6.35;;;1.42;;
47167;SDS011;32931;47.778;17.806;2022-08-05T10:44:47;3.78;;;1.48;;
47167;SDS011;32931;47.778;17.806;2022-08-05T10:47:15;4.40;;;1.30;;
47167;SDS011;32931;47.778;17.806;2022-08-05T10:50:04;5.10;;;1.35;;
47167;SDS011;32931;47.778;17.806;2022-08-05T10:52:37;4.15;;;1.30;;
47167;SDS011;32931;47.778;17.806;2022-08-05T10:55:07;6.28;;;1.40;;
47167;SDS011;32931;47.778;17.806;2022-08-05T10:57:35;6.00;;;1.42;;
47167;SDS011;32931;47.778;17.806;2022-08-05T11:00:06;3.95;;;1.25;;
47167;SDS011;32931;47.778;17.806;2022-08-05T11:02:34;7.68;;;1.30;;
47167;SDS011;32931;47.778;17.806;2022-08-05T11:05:04;5.70;;;1.40;;
47167;SDS011;32931;47.778;17.806;2022-08-05T11:07:34;3.63;;;1.10;;
47167;SDS011;32931;47.778;17.806;2022-08-05T11:10:20;3.28;;;1.15;;
47167;SDS011;32931;47.778;17.806;2022-08-05T11:12:48;13.30;;;1.13;;
47167;SDS011;32931;47.778;17.806;2022-08-05T11:17:44;13.20;;;1.50;;
47167;SDS011;32931;47.778;17.806;2022-08-05T11:22:57;6.50;;;1.30;;
47167;SDS011;32931;47.778;17.806;2022-08-05T11:25:33;5.80;;;1.50;;
47167;SDS011;32931;47.778;17.806;2022-08-05T11:35:59;9.35;;;1.40;;
47167;SDS011;32931;47.778;17.806;2022-08-05T11:41:05;5.18;;;1.10;;
47167;SDS011;32931;47.778;17.806;2022-08-05T11:43:52;4.57;;;1.27;;
47167;SDS011;32931;47.778;17.806;2022-08-05T11:48:58;5.55;;;1.02;;
47167;SDS011;32931;47.778;17.806;2022-08-05T11:51:26;5.80;;;1.25;;
47167;SDS011;32931;47.778;17.806;2022-08-05T11:53:54;2.45;;;0.82;;
47167;SDS011;32931;47.778;17.806;2022-08-05T11:56:21;4.72;;;1.00;;
47167;SDS011;32931;47.778;17.806;2022-08-05T11:58:48;2.30;;;1.20;;
47167;SDS011;32931;47.778;17.806;2022-08-05T12:01:16;4.18;;;1.40;;
47167;SDS011;32931;47.778;17.806;2022-08-05T12:03:47;7.10;;;1.20;;
47167;SDS011;32931;47.778;17.806;2022-08-05T12:06:16;5.18;;;1.30;;
47167;SDS011;32931;47.778;17.806;2022-08-05T12:08:51;2.67;;;1.25;;
47167;SDS011;32931;47.778;17.806;2022-08-05T12:11:29;4.90;;;1.20;;
47167;SDS011;32931;47.778;17.806;2022-08-05T12:13:56;3.63;;;1.13;;
47167;SDS011;32931;47.778;17.806;2022-08-05T12:16:23;4.70;;;1.27;;
47167;SDS011;32931;47.778;17.806;2022-08-05T12:18:51;3.10;;;1.10;;
47167;SDS011;32931;47.778;17.806;2022-08-05T12:21:42;2.03;;;1.05;;
47167;SDS011;32931;47.778;17.806;2022-08-05T12:24:09;5.68;;;1.35;;
47167;SDS011;32931;47.778;17.806;2022-08-05T12:26:44;5.35;;;1.10;;
47167;SDS011;32931;47.778;17.806;2022-08-05T12:29:16;12.82;;;1.40;;
47167;SDS011;32931;47.778;17.806;2022-08-05T12:31:48;2.22;;;0.80;;
47167;SDS011;32931;47.778;17.806;2022-08-05T12:34:17;7.93;;;1.33;;
47167;SDS011;32931;47.778;17.806;2022-08-05T12:36:45;3.38;;;1.17;;
47167;SDS011;32931;47.778;17.806;2022-08-05T12:39:12;4.75;;;1.13;;
47167;SDS011;32931;47.778;17.806;2022-08-05T12:41:39;7.28;;;1.20;;
47167;SDS011;32931;47.778;17.806;2022-08-05T12:44:07;8.68;;;1.20;;
47167;SDS011;32931;47.778;17.806;2022-08-05T12:46:35;4.15;;;1.15;;
47167;SDS011;32931;47.778;17.806;2022-08-05T12:49:07;6.50;;;1.20;;
47167;SDS011;32931;47.778;17.806;2022-08-05T12:51:44;2.95;;;1.10;;
47167;SDS011;32931;47.778;17.806;2022-08-05T12:54:20;3.13;;;1.15;;
47167;SDS011;32931;47.778;17.806;2022-08-05T12:56:57;8.05;;;1.00;;
47167;SDS011;32931;47.778;17.806;2022-08-05T12:59:26;4.20;;;1.25;;
47167;SDS011;32931;47.778;17.806;2022-08-05T13:04:20;4.80;;;1.25;;
47167;SDS011;32931;47.778;17.806;2022-08-05T13:06:47;2.30;;;1.00;;
47167;SDS011;32931;47.778;17.806;2022-08-05T13:09:13;3.80;;;1.00;;
47167;SDS011;32931;47.778;17.806;2022-08-05T13:11:40;3.67;;;1.10;;
47167;SDS011;32931;47.778;17.806;2022-08-05T13:14:33;3.05;;;1.10;;
47167;SDS011;32931;47.778;17.806;2022-08-05T13:17:00;3.00;;;1.23;;
47167;SDS011;32931;47.778;17.806;2022-08-05T13:19:27;4.03;;;1.40;;
47167;SDS011;32931;47.778;17.806;2022-08-05T13:21:54;4.53;;;1.10;;
47167;SDS011;32931;47.778;17.806;2022-08-05T13:24:21;2.08;;;1.13;;
47167;SDS011;32931;47.778;17.806;2022-08-05T13:26:49;5.50;;;1.20;;
47167;SDS011;32931;47.778;17.806;2022-08-05T13:29:16;1.20;;;1.00;;
47167;SDS011;32931;47.778;17.806;2022-08-05T13:31:44;2.25;;;1.20;;
47167;SDS011;32931;47.778;17.806;2022-08-05T13:34:11;3.22;;;1.10;;
47167;SDS011;32931;47.778;17.806;2022-08-05T13:36:38;4.32;;;1.05;;
47167;SDS011;32931;47.778;17.806;2022-08-05T13:39:05;3.28;;;1.10;;
47167;SDS011;32931;47.778;17.806;2022-08-05T13:41:33;9.00;;;1.42;;
47167;SDS011;32931;47.778;17.806;2022-08-05T13:44:00;3.97;;;1.20;;
47167;SDS011;32931;47.778;17.806;2022-08-05T13:46:27;5.55;;;0.98;;
47167;SDS011;32931;47.778;17.806;2022-08-05T13:48:54;4.60;;;1.10;;
47167;SDS011;32931;47.778;17.806;2022-08-05T13:51:30;3.13;;;1.17;;
47167;SDS011;32931;47.778;17.806;2022-08-05T13:53:57;4.90;;;1.00;;
47167;SDS011;32931;47.778;17.806;2022-08-05T13:56:24;4.13;;;0.98;;
47167;SDS011;32931;47.778;17.806;2022-08-05T13:58:51;2.33;;;1.02;;
47167;SDS011;32931;47.778;17.806;2022-08-05T14:01:17;4.03;;;1.10;;
47167;SDS011;32931;47.778;17.806;2022-08-05T14:03:44;6.05;;;1.20;;
47167;SDS011;32931;47.778;17.806;2022-08-05T14:06:30;3.03;;;0.90;;
47167;SDS011;32931;47.778;17.806;2022-08-05T14:08:56;3.42;;;0.93;;
47167;SDS011;32931;47.778;17.806;2022-08-05T14:11:23;6.50;;;1.20;;
47167;SDS011;32931;47.778;17.806;2022-08-05T14:13:49;3.00;;;1.10;;
47167;SDS011;32931;47.778;17.806;2022-08-05T14:16:16;2.75;;;1.20;;
47167;SDS011;32931;47.778;17.806;2022-08-05T14:18:42;9.45;;;1.10;;
47167;SDS011;32931;47.778;17.806;2022-08-05T14:21:08;3.88;;;1.27;;
47167;SDS011;32931;47.778;17.806;2022-08-05T14:23:34;2.97;;;1.00;;
47167;SDS011;32931;47.778;17.806;2022-08-05T14:26:00;5.63;;;1.40;;
47167;SDS011;32931;47.778;17.806;2022-08-05T14:28:27;10.32;;;1.20;;
47167;SDS011;32931;47.778;17.806;2022-08-05T14:30:54;3.83;;;1.05;;
47167;SDS011;32931;47.778;17.806;2022-08-05T14:33:21;4.88;;;1.05;;
47167;SDS011;32931;47.778;17.806;2022-08-05T14:35:48;4.97;;;1.00;;
47167;SDS011;32931;47.778;17.806;2022-08-05T14:38:14;4.13;;;1.10;;
47167;SDS011;32931;47.778;17.806;2022-08-05T14:40:40;6.72;;;1.20;;
47167;SDS011;32931;47.778;17.806;2022-08-05T14:43:07;3.90;;;1.25;;
47167;SDS011;32931;47.778;17.806;2022-08-05T14:45:33;8.00;;;1.10;;
47167;SDS011;32931;47.778;17.806;2022-08-05T14:47:59;4.50;;;0.90;;
47167;SDS011;32931;47.778;17.806;2022-08-05T14:50:25;3.78;;;0.85;;
47167;SDS011;32931;47.778;17.806;2022-08-05T14:52:52;6.68;;;1.17;;
47167;SDS011;32931;47.778;17.806;2022-08-05T14:55:18;2.47;;;0.90;;
47167;SDS011;32931;47.778;17.806;2022-08-05T14:57:44;4.32;;;0.98;;
47167;SDS011;32931;47.778;17.806;2022-08-05T15:00:10;4.18;;;1.10;;
47167;SDS011;32931;47.778;17.806;2022-08-05T15:02:37;2.33;;;1.10;;
47167;SDS011;32931;47.778;17.806;2022-08-05T15:05:03;5.28;;;1.02;;
47167;SDS011;32931;47.778;17.806;2022-08-05T15:07:29;3.63;;;0.88;;
47167;SDS011;32931;47.778;17.806;2022-08-05T15:09:56;7.60;;;1.00;;
47167;SDS011;32931;47.778;17.806;2022-08-05T15:12:22;5.45;;;1.10;;
47167;SDS011;32931;47.778;17.806;2022-08-05T15:14:48;5.80;;;1.00;;
47167;SDS011;32931;47.778;17.806;2022-08-05T15:17:14;5.30;;;1.00;;
47167;SDS011;32931;47.778;17.806;2022-08-05T15:19:41;1.92;;;0.80;;
47167;SDS011;32931;47.778;17.806;2022-08-05T15:22:07;2.67;;;1.00;;
47167;SDS011;32931;47.778;17.806;2022-08-05T15:24:33;20.80;;;1.45;;
47167;SDS011;32931;47.778;17.806;2022-08-05T15:26:59;19.25;;;1.65;;
47167;SDS011;32931;47.778;17.806;2022-08-05T15:29:26;10.15;;;1.13;;
47167;SDS011;32931;47.778;17.806;2022-08-05T15:31:52;3.92;;;0.90;;
47167;SDS011;32931;47.778;17.806;2022-08-05T15:34:18;8.50;;;1.00;;
47167;SDS011;32931;47.778;17.806;2022-08-05T15:36:44;2.55;;;0.90;;
47167;SDS011;32931;47.778;17.806;2022-08-05T15:39:11;8.90;;;1.08;;
47167;SDS011;32931;47.778;17.806;2022-08-05T15:41:37;2.95;;;0.80;;
47167;SDS011;32931;47.778;17.806;2022-08-05T15:44:03;2.08;;;0.82;;
47167;SDS011;32931;47.778;17.806;2022-08-05T15:46:29;10.52;;;1.15;;
47167;SDS011;32931;47.778;17.806;2022-08-05T15:48:56;7.80;;;1.00;;
47167;SDS011;32931;47.778;17.806;2022-08-05T15:51:25;5.53;;;1.20;;
47167;SDS011;32931;47.778;17.806;2022-08-05T15:53:52;4.10;;;0.80;;
47167;SDS011;32931;47.778;17.806;2022-08-05T15:56:18;4.32;;;0.82;;
47167;SDS011;32931;47.778;17.806;2022-08-05T15:58:45;5.43;;;1.17;;
47167;SDS011;32931;47.778;17.806;2022-08-05T16:01:11;4.13;;;0.80;;
47167;SDS011;32931;47.778;17.806;2022-08-05T16:03:39;8.30;;;0.85;;
47167;SDS011;32931;47.778;17.806;2022-08-05T16:06:05;2.95;;;0.82;;
47167;SDS011;32931;47.778;17.806;2022-08-05T16:08:32;6.43;;;1.10;;
47167;SDS011;32931;47.778;17.806;2022-08-05T16:10:59;8.45;;;1.40;;
47167;SDS011;32931;47.778;17.806;2022-08-05T16:13:25;8.93;;;1.30;;